sensor_id;sensor_type;location;lat;lon;timestamp;pressure;altitude;pressure_sealevel;temperature;humidity
32492;BME280;20605;49.742;18.802;2022-11-20T00:01:27;97421.08;;;-1.09;100.00
32492;BME280;20605;49.742;18.802;2022-11-20T00:03:56;97412.92;;;-1.17;100.00
32492;BME280;20605;49.742;18.802;2022-11-20T00:06:27;97418.47;;;-1.15;100.00
32492;BME280;20605;49.742;18.802;2022-11-20T00:08:56;97416.78;;;-1.13;100.00
32492;BME280;20605;49.742;18.802;2022-11-20T00:11:26;97413.42;;;-1.07;100.00
32492;BME280;20605;49.742;18.802;2022-11-20T00:13:55;97416.00;;;-1.04;100.00
32492;BME280;20605;49.742;18.802;2022-11-20T00:16:24;97417.72;;;-1.03;100.00
32492;BME280;20605;49.742;18.802;2022-11-20T00:18:51;97420.72;;;-1.01;100.00
32492;BME280;20605;49.742;18.802;2022-11-20T00:21:23;97420.72;;;-1.01;100.00
32492;BME280;20605;49.742;18.802;2022-11-20T00:23:53;97418.13;;;-1.05;100.00
32492;BME280;20605;49.742;18.802;2022-11-20T00:26:23;97425.77;;;-1.08;100.00
32492;BME280;20605;49.742;18.802;2022-11-20T00:28:53;97433.40;;;-1.13;100.00
32492;BME280;20605;49.742;18.802;2022-11-20T00:31:22;97422.74;;;-1.14;100.00
32492;BME280;20605;49.742;18.802;2022-11-20T00:33:49;97425.69;;;-1.17;100.00
32492;BME280;20605;49.742;18.802;2022-11-20T00:36:25;97420.48;;;-1.29;100.00
32492;BME280;20605;49.742;18.802;2022-11-20T00:38:53;97420.38;;;-1.45;100.00
32492;BME280;20605;49.742;18.802;2022-11-20T00:41:20;97414.31;;;-1.56;100.00
32492;BME280;20605;49.742;18.802;2022-11-20T00:43:47;97421.80;;;-1.73;100.00
32492;BME280;20605;49.742;18.802;2022-11-20T00:46:24;97423.75;;;-1.89;100.00
32492;BME280;20605;49.742;18.802;2022-11-20T00:48:52;97416.02;;;-1.97;100.00
32492;BME280;20605;49.742;18.802;2022-11-20T00:51:21;97414.75;;;-1.95;100.00
32492;BME280;20605;49.742;18.802;2022-11-20T00:53:49;97409.21;;;-1.96;100.00
32492;BME280;20605;49.742;18.802;2022-11-20T00:56:18;97406.05;;;-2.12;100.00
32492;BME280;20605;49.742;18.802;2022-11-20T00:58:47;97407.58;;;-2.26;100.00
32492;BME280;20605;49.742;18.802;2022-11-20T01:01:19;97402.92;;;-2.25;100.00
32492;BME280;20605;49.742;18.802;2022-11-20T01:03:49;97405.12;;;-2.19;100.00
32492;BME280;20605;49.742;18.802;2022-11-20T01:06:21;97405.56;;;-2.18;100.00
32492;BME280;20605;49.742;18.802;2022-11-20T01:08:52;97398.78;;;-2.16;100.00
32492;BME280;20605;49.742;18.802;2022-11-20T01:11:24;97394.11;;;-2.15;100.00
32492;BME280;20605;49.742;18.802;2022-11-20T01:13:52;97394.94;;;-2.17;100.00
32492;BME280;20605;49.742;18.802;2022-11-20T01:16:26;97397.45;;;-2.20;100.00
32492;BME280;20605;49.742;18.802;2022-11-20T01:18:56;97400.38;;;-2.24;100.00
32492;BME280;20605;49.742;18.802;2022-11-20T01:21:35;97397.23;;;-2.39;100.00
32492;BME280;20605;49.742;18.802;2022-11-20T01:24:05;97391.14;;;-2.50;100.00
32492;BME280;20605;49.742;18.802;2022-11-20T01:26:35;97386.80;;;-2.57;100.00
32492;BME280;20605;49.742;18.802;2022-11-20T01:29:04;97387.25;;;-2.54;100.00
32492;BME280;20605;49.742;18.802;2022-11-20T01:31:33;97387.66;;;-2.56;100.00
32492;BME280;20605;49.742;18.802;2022-11-20T01:34:04;97380.88;;;-2.54;100.00
32492;BME280;20605;49.742;18.802;2022-11-20T01:36:33;97385.98;;;-2.54;100.00
32492;BME280;20605;49.742;18.802;2022-11-20T01:39:19;97380.44;;;-2.55;100.00
32492;BME280;20605;49.742;18.802;2022-11-20T01:41:45;97380.77;;;-2.65;100.00
32492;BME280;20605;49.742;18.802;2022-11-20T01:44:58;97376.22;;;-2.87;100.00
32492;BME280;20605;49.742;18.802;2022-11-20T01:47:35;97374.36;;;-2.99;100.00
32492;BME280;20605;49.742;18.802;2022-11-20T01:50:12;97369.22;;;-3.02;100.00
32492;BME280;20605;49.742;18.802;2022-11-20T01:52:45;97375.47;;;-3.10;100.00
32492;BME280;20605;49.742;18.802;2022-11-20T01:55:21;97376.61;;;-3.19;100.00
32492;BME280;20605;49.742;18.802;2022-11-20T01:57:57;97373.20;;;-3.19;100.00
32492;BME280;20605;49.742;18.802;2022-11-20T02:00:25;97372.86;;;-3.14;100.00
32492;BME280;20605;49.742;18.802;2022-11-20T02:02:55;97379.70;;;-3.10;100.00
32492;BME280;20605;49.742;18.802;2022-11-20T02:05:31;97385.69;;;-3.08;100.00
32492;BME280;20605;49.742;18.802;2022-11-20T02:08:05;97384.02;;;-3.06;100.00
32492;BME280;20605;49.742;18.802;2022-11-20T02:10:33;97388.28;;;-3.05;100.00
32492;BME280;20605;49.742;18.802;2022-11-20T02:13:00;97388.25;;;-3.07;100.00
32492;BME280;20605;49.742;18.802;2022-11-20T02:15:45;97393.74;;;-3.09;100.00
32492;BME280;20605;49.742;18.802;2022-11-20T02:18:20;97390.78;;;-3.08;100.00
32492;BME280;20605;49.742;18.802;2022-11-20T02:20:50;97404.38;;;-3.08;100.00
32492;BME280;20605;49.742;18.802;2022-11-20T02:23:36;97397.14;;;-3.08;100.00
32492;BME280;20605;49.742;18.802;2022-11-20T02:26:08;97393.70;;;-3.12;100.00
32492;BME280;20605;49.742;18.802;2022-11-20T02:28:42;97395.70;;;-3.19;100.00
32492;BME280;20605;49.742;18.802;2022-11-20T02:31:09;97400.63;;;-3.30;100.00
32492;BME280;20605;49.742;18.802;2022-11-20T02:33:36;97400.80;;;-3.45;100.00
32492;BME280;20605;49.742;18.802;2022-11-20T02:36:03;97406.17;;;-3.53;100.00
32492;BME280;20605;49.742;18.802;2022-11-20T02:38:30;97406.26;;;-3.49;100.00
32492;BME280;20605;49.742;18.802;2022-11-20T02:40:59;97401.68;;;-3.43;100.00
32492;BME280;20605;49.742;18.802;2022-11-20T02:43:26;97393.70;;;-3.38;100.00
32492;BME280;20605;49.742;18.802;2022-11-20T02:45:53;97398.06;;;-3.31;100.00
32492;BME280;20605;49.742;18.802;2022-11-20T02:48:19;97402.03;;;-3.22;100.00
32492;BME280;20605;49.742;18.802;2022-11-20T02:50:46;97396.61;;;-3.15;100.00
32492;BME280;20605;49.742;18.802;2022-11-20T02:53:13;97401.41;;;-3.07;100.00
32492;BME280;20605;49.742;18.802;2022-11-20T02:55:40;97399.86;;;-2.98;100.00
32492;BME280;20605;49.742;18.802;2022-11-20T02:58:06;97397.42;;;-2.90;100.00
32492;BME280;20605;49.742;18.802;2022-11-20T03:00:39;97394.98;;;-2.82;100.00
32492;BME280;20605;49.742;18.802;2022-11-20T03:03:05;97389.91;;;-2.81;100.00
32492;BME280;20605;49.742;18.802;2022-11-20T03:05:38;97395.86;;;-2.80;100.00
32492;BME280;20605;49.742;18.802;2022-11-20T03:08:05;97392.53;;;-2.75;100.00
32492;BME280;20605;49.742;18.802;2022-11-20T03:10:31;97398.59;;;-2.67;100.00
32492;BME280;20605;49.742;18.802;2022-11-20T03:12:58;97392.66;;;-2.66;100.00
32492;BME280;20605;49.742;18.802;2022-11-20T03:15:26;97393.41;;;-2.73;100.00
32492;BME280;20605;49.742;18.802;2022-11-20T03:17:54;97394.61;;;-2.79;100.00
32492;BME280;20605;49.742;18.802;2022-11-20T03:20:22;97398.87;;;-2.78;100.00
32492;BME280;20605;49.742;18.802;2022-11-20T03:22:48;97396.00;;;-2.70;100.00
32492;BME280;20605;49.742;18.802;2022-11-20T03:25:17;97399.11;;;-2.58;100.00
32492;BME280;20605;49.742;18.802;2022-11-20T03:27:43;97398.83;;;-2.47;100.00
32492;BME280;20605;49.742;18.802;2022-11-20T03:30:11;97402.31;;;-2.40;100.00
32492;BME280;20605;49.742;18.802;2022-11-20T03:32:38;97403.28;;;-2.31;100.00
32492;BME280;20605;49.742;18.802;2022-11-20T03:35:08;97402.55;;;-2.20;100.00
32492;BME280;20605;49.742;18.802;2022-11-20T03:37:35;97411.59;;;-2.11;100.00
32492;BME280;20605;49.742;18.802;2022-11-20T03:40:02;97406.52;;;-2.08;100.00
32492;BME280;20605;49.742;18.802;2022-11-20T03:42:29;97408.64;;;-2.09;100.00
32492;BME280;20605;49.742;18.802;2022-11-20T03:45:15;97404.86;;;-2.05;100.00
32492;BME280;20605;49.742;18.802;2022-11-20T03:47:45;97406.17;;;-2.02;100.00
32492;BME280;20605;49.742;18.802;2022-11-20T03:50:12;97398.06;;;-2.04;100.00
32492;BME280;20605;49.742;18.802;2022-11-20T03:52:40;97393.27;;;-2.14;100.00
32492;BME280;20605;49.742;18.802;2022-11-20T03:55:07;97395.77;;;-2.18;100.00
32492;BME280;20605;49.742;18.802;2022-11-20T03:57:35;97390.33;;;-2.12;100.00
32492;BME280;20605;49.742;18.802;2022-11-20T04:00:03;97391.14;;;-2.14;100.00
32492;BME280;20605;49.742;18.802;2022-11-20T04:02:30;97387.27;;;-2.19;100.00
32492;BME280;20605;49.742;18.802;2022-11-20T04:04:57;97389.39;;;-2.18;100.00
32492;BME280;20605;49.742;18.802;2022-11-20T04:07:25;97390.29;;;-2.15;100.00
32492;BME280;20605;49.742;18.802;2022-11-20T04:09:51;97393.31;;;-2.11;100.00
32492;BME280;20605;49.742;18.802;2022-11-20T04:12:18;97388.23;;;-2.09;100.00
32492;BME280;20605;49.742;18.802;2022-11-20T04:14:45;97382.28;;;-2.08;100.00
32492;BME280;20605;49.742;18.802;2022-11-20T04:17:12;97381.56;;;-1.97;100.00
32492;BME280;20605;49.742;18.802;2022-11-20T04:19:39;97387.21;;;-1.85;100.00
32492;BME280;20605;49.742;18.802;2022-11-20T04:22:08;97385.13;;;-1.81;100.00
32492;BME280;20605;49.742;18.802;2022-11-20T04:24:34;97380.38;;;-1.87;100.00
32492;BME280;20605;49.742;18.802;2022-11-20T04:27:01;97387.65;;;-1.84;100.00
32492;BME280;20605;49.742;18.802;2022-11-20T04:29:28;97383.11;;;-1.69;100.00
32492;BME280;20605;49.742;18.802;2022-11-20T04:31:54;97386.20;;;-1.57;100.00
32492;BME280;20605;49.742;18.802;2022-11-20T04:34:23;97384.98;;;-1.51;100.00
32492;BME280;20605;49.742;18.802;2022-11-20T04:36:49;97385.47;;;-1.44;100.00
32492;BME280;20605;49.742;18.802;2022-11-20T04:39:18;97385.92;;;-1.42;100.00
32492;BME280;20605;49.742;18.802;2022-11-20T04:41:44;97377.89;;;-1.35;100.00
32492;BME280;20605;49.742;18.802;2022-11-20T04:44:20;97381.73;;;-1.34;100.00
32492;BME280;20605;49.742;18.802;2022-11-20T04:46:46;97383.02;;;-1.32;100.00
32492;BME280;20605;49.742;18.802;2022-11-20T04:49:14;97377.45;;;-1.36;100.00
32492;BME280;20605;49.742;18.802;2022-11-20T04:51:40;97377.03;;;-1.36;100.00
32492;BME280;20605;49.742;18.802;2022-11-20T04:54:08;97375.78;;;-1.33;100.00
32492;BME280;20605;49.742;18.802;2022-11-20T04:56:34;97372.37;;;-1.28;100.00
32492;BME280;20605;49.742;18.802;2022-11-20T04:59:02;97371.97;;;-1.25;100.00
32492;BME280;20605;49.742;18.802;2022-11-20T05:01:28;97370.70;;;-1.25;100.00
32492;BME280;20605;49.742;18.802;2022-11-20T05:04:01;97358.75;;;-1.32;100.00
32492;BME280;20605;49.742;18.802;2022-11-20T05:06:28;97359.13;;;-1.39;100.00
32492;BME280;20605;49.742;18.802;2022-11-20T05:08:54;97353.51;;;-1.49;100.00
32492;BME280;20605;49.742;18.802;2022-11-20T05:11:21;97353.89;;;-1.54;100.00
32492;BME280;20605;49.742;18.802;2022-11-20T05:14:06;97350.97;;;-1.47;100.00
32492;BME280;20605;49.742;18.802;2022-11-20T05:16:34;97348.41;;;-1.47;100.00
32492;BME280;20605;49.742;18.802;2022-11-20T05:19:09;97345.91;;;-1.41;100.00
32492;BME280;20605;49.742;18.802;2022-11-20T05:21:35;97345.06;;;-1.40;100.00
32492;BME280;20605;49.742;18.802;2022-11-20T05:24:08;97341.64;;;-1.42;100.00
32492;BME280;20605;49.742;18.802;2022-11-20T05:26:35;97333.52;;;-1.48;100.00
32492;BME280;20605;49.742;18.802;2022-11-20T05:29:05;97333.89;;;-1.53;100.00
32492;BME280;20605;49.742;18.802;2022-11-20T05:31:32;97337.25;;;-1.58;100.00
32492;BME280;20605;49.742;18.802;2022-11-20T05:33:59;97333.33;;;-1.69;100.00
32492;BME280;20605;49.742;18.802;2022-11-20T05:36:26;97332.41;;;-1.77;100.00
32492;BME280;20605;49.742;18.802;2022-11-20T05:38:52;97334.45;;;-1.86;100.00
32492;BME280;20605;49.742;18.802;2022-11-20T05:41:21;97333.13;;;-1.90;100.00
32492;BME280;20605;49.742;18.802;2022-11-20T05:43:49;97337.30;;;-2.00;100.00
32492;BME280;20605;49.742;18.802;2022-11-20T05:46:19;97339.38;;;-2.04;100.00
32492;BME280;20605;49.742;18.802;2022-11-20T05:48:46;97334.80;;;-1.94;100.00
32492;BME280;20605;49.742;18.802;2022-11-20T05:51:16;97325.53;;;-1.84;100.00
32492;BME280;20605;49.742;18.802;2022-11-20T05:53:45;97329.41;;;-1.80;100.00
32492;BME280;20605;49.742;18.802;2022-11-20T05:56:17;97334.98;;;-1.74;100.00
32492;BME280;20605;49.742;18.802;2022-11-20T05:58:46;97326.12;;;-1.67;100.00
32492;BME280;20605;49.742;18.802;2022-11-20T06:01:16;97325.33;;;-1.59;100.00
32492;BME280;20605;49.742;18.802;2022-11-20T06:03:47;97319.84;;;-1.54;100.00
32492;BME280;20605;49.742;18.802;2022-11-20T06:06:16;97323.69;;;-1.51;100.00
32492;BME280;20605;49.742;18.802;2022-11-20T06:08:44;97324.56;;;-1.49;100.00
32492;BME280;20605;49.742;18.802;2022-11-20T06:11:12;97314.73;;;-1.53;100.00
32492;BME280;20605;49.742;18.802;2022-11-20T06:13:40;97318.97;;;-1.56;100.00
32492;BME280;20605;49.742;18.802;2022-11-20T06:16:08;97318.91;;;-1.64;100.00
32492;BME280;20605;49.742;18.802;2022-11-20T06:18:35;97307.77;;;-1.74;100.00
32492;BME280;20605;49.742;18.802;2022-11-20T06:21:18;97300.43;;;-1.85;100.00
32492;BME280;20605;49.742;18.802;2022-11-20T06:23:43;97299.08;;;-1.92;100.00
32492;BME280;20605;49.742;18.802;2022-11-20T06:26:12;97301.09;;;-2.06;100.00
32492;BME280;20605;49.742;18.802;2022-11-20T06:28:41;97298.88;;;-2.14;100.00
32492;BME280;20605;49.742;18.802;2022-11-20T06:31:11;97290.33;;;-2.19;100.00
32492;BME280;20605;49.742;18.802;2022-11-20T06:33:39;97288.59;;;-2.21;100.00
32492;BME280;20605;49.742;18.802;2022-11-20T06:36:34;97291.13;;;-2.23;100.00
32492;BME280;20605;49.742;18.802;2022-11-20T06:39:02;97292.03;;;-2.18;100.00
32492;BME280;20605;49.742;18.802;2022-11-20T06:41:29;97292.47;;;-2.17;100.00
32492;BME280;20605;49.742;18.802;2022-11-20T06:43:56;97288.59;;;-2.21;100.00
32492;BME280;20605;49.742;18.802;2022-11-20T06:46:22;97282.55;;;-2.31;100.00
32492;BME280;20605;49.742;18.802;2022-11-20T06:48:49;97283.41;;;-2.31;100.00
32492;BME280;20605;49.742;18.802;2022-11-20T06:51:16;97297.05;;;-2.27;100.00
32492;BME280;20605;49.742;18.802;2022-11-20T06:53:43;97289.00;;;-2.23;100.00
32492;BME280;20605;49.742;18.802;2022-11-20T06:56:10;97298.81;;;-2.20;100.00
32492;BME280;20605;49.742;18.802;2022-11-20T06:58:37;97300.61;;;-2.11;100.00
32492;BME280;20605;49.742;18.802;2022-11-20T07:01:06;97306.28;;;-1.97;100.00
32492;BME280;20605;49.742;18.802;2022-11-20T07:03:36;97304.19;;;-1.92;100.00
32492;BME280;20605;49.742;18.802;2022-11-20T07:06:03;97305.48;;;-1.91;100.00
32492;BME280;20605;49.742;18.802;2022-11-20T07:08:32;97305.16;;;-1.80;100.00
32492;BME280;20605;49.742;18.802;2022-11-20T07:11:00;97303.14;;;-1.67;100.00
32492;BME280;20605;49.742;18.802;2022-11-20T07:13:28;97310.47;;;-1.55;100.00
32492;BME280;20605;49.742;18.802;2022-11-20T07:16:01;97309.17;;;-1.57;100.00
32492;BME280;20605;49.742;18.802;2022-11-20T07:18:28;97309.21;;;-1.52;100.00
32492;BME280;20605;49.742;18.802;2022-11-20T07:21:01;97314.36;;;-1.46;100.00
32492;BME280;20605;49.742;18.802;2022-11-20T07:23:29;97313.13;;;-1.42;100.00
32492;BME280;20605;49.742;18.802;2022-11-20T07:25:56;97311.02;;;-1.38;100.00
32492;BME280;20605;49.742;18.802;2022-11-20T07:28:23;97314.87;;;-1.36;100.00
32492;BME280;20605;49.742;18.802;2022-11-20T07:30:51;97308.95;;;-1.24;100.00
32492;BME280;20605;49.742;18.802;2022-11-20T07:33:21;97315.84;;;-1.14;100.00
32492;BME280;20605;49.742;18.802;2022-11-20T07:35:48;97314.66;;;-0.97;100.00
32492;BME280;20605;49.742;18.802;2022-11-20T07:38:14;97318.97;;;-0.89;100.00
32492;BME280;20605;49.742;18.802;2022-11-20T07:40:41;97323.70;;;-0.79;100.00
32492;BME280;20605;49.742;18.802;2022-11-20T07:43:19;97333.13;;;-0.71;100.00
32492;BME280;20605;49.742;18.802;2022-11-20T07:46:14;97318.64;;;-0.69;100.00
32492;BME280;20605;49.742;18.802;2022-11-20T07:49:35;97324.69;;;-0.53;100.00
32492;BME280;20605;49.742;18.802;2022-11-20T07:59:16;97328.50;;;-0.59;100.00
32492;BME280;20605;49.742;18.802;2022-11-20T08:02:12;97325.98;;;-0.48;100.00
32492;BME280;20605;49.742;18.802;2022-11-20T08:11:08;97325.20;;;-0.30;100.00
32492;BME280;20605;49.742;18.802;2022-11-20T08:18:32;97319.23;;;-0.26;100.00
32492;BME280;20605;49.742;18.802;2022-11-20T08:28:26;97320.53;;;-0.20;100.00
32492;BME280;20605;49.742;18.802;2022-11-20T08:31:29;97327.82;;;-0.08;100.00
32492;BME280;20605;49.742;18.802;2022-11-20T08:33:56;97325.70;;;-0.05;100.00
32492;BME280;20605;49.742;18.802;2022-11-20T08:36:23;97323.97;;;-0.12;100.00
32492;BME280;20605;49.742;18.802;2022-11-20T08:38:51;97320.14;;;-0.09;100.00
32492;BME280;20605;49.742;18.802;2022-11-20T08:41:19;97327.81;;;0.02;100.00
32492;BME280;20605;49.742;18.802;2022-11-20T08:44:00;97327.83;;;0.11;100.00
32492;BME280;20605;49.742;18.802;2022-11-20T08:46:20;97327.42;;;0.25;100.00
32492;BME280;20605;49.742;18.802;2022-11-20T08:48:47;97331.28;;;0.36;100.00
32492;BME280;20605;49.742;18.802;2022-11-20T08:51:14;97330.00;;;0.43;100.00
32492;BME280;20605;49.742;18.802;2022-11-20T08:53:42;97329.58;;;0.53;100.00
32492;BME280;20605;49.742;18.802;2022-11-20T08:56:09;97330.01;;;0.61;100.00
32492;BME280;20605;49.742;18.802;2022-11-20T08:58:36;97327.02;;;0.67;100.00
32492;BME280;20605;49.742;18.802;2022-11-20T09:01:04;97325.73;;;0.73;100.00
32492;BME280;20605;49.742;18.802;2022-11-20T09:03:31;97328.30;;;0.79;100.00
32492;BME280;20605;49.742;18.802;2022-11-20T09:06:03;97326.58;;;0.85;100.00
32492;BME280;20605;49.742;18.802;2022-11-20T09:08:28;97327.00;;;0.88;100.00
32492;BME280;20605;49.742;18.802;2022-11-20T09:10:57;97329.14;;;0.88;100.00
32492;BME280;20605;49.742;18.802;2022-11-20T09:13:25;97324.86;;;0.92;100.00
32492;BME280;20605;49.742;18.802;2022-11-20T09:16:01;97323.56;;;1.00;100.00
32492;BME280;20605;49.742;18.802;2022-11-20T09:18:27;97327.41;;;1.01;100.00
32492;BME280;20605;49.742;18.802;2022-11-20T09:20:58;97322.72;;;0.94;100.00
32492;BME280;20605;49.742;18.802;2022-11-20T09:23:26;97323.56;;;1.00;100.00
32492;BME280;20605;49.742;18.802;2022-11-20T09:25:53;97326.53;;;1.11;100.00
32492;BME280;20605;49.742;18.802;2022-11-20T09:28:21;97323.95;;;1.20;100.00
32492;BME280;20605;49.742;18.802;2022-11-20T09:30:48;97322.64;;;1.29;100.00
32492;BME280;20605;49.742;18.802;2022-11-20T09:33:15;97323.02;;;1.37;100.00
32492;BME280;20605;49.742;18.802;2022-11-20T09:35:42;97317.87;;;1.40;100.00
32492;BME280;20605;49.742;18.802;2022-11-20T09:38:11;97316.16;;;1.40;100.00
32492;BME280;20605;49.742;18.802;2022-11-20T09:40:46;97312.28;;;1.48;100.00
32492;BME280;20605;49.742;18.802;2022-11-20T09:54:22;97307.09;;;1.63;100.00
32492;BME280;20605;49.742;18.802;2022-11-20T09:57:01;97303.70;;;1.56;100.00
32492;BME280;20605;49.742;18.802;2022-11-20T09:59:45;97295.98;;;1.59;100.00
32492;BME280;20605;49.742;18.802;2022-11-20T10:05:39;97279.97;;;1.93;100.00
32492;BME280;20605;49.742;18.802;2022-11-20T10:07:51;97280.24;;;2.17;100.00
32492;BME280;20605;49.742;18.802;2022-11-20T10:10:35;97278.43;;;2.32;100.00
32492;BME280;20605;49.742;18.802;2022-11-20T10:13:26;97271.48;;;2.44;100.00
32492;BME280;20605;49.742;18.802;2022-11-20T10:19:10;97271.59;;;2.76;100.00
32492;BME280;20605;49.742;18.802;2022-11-20T10:24:58;97264.08;;;3.00;100.00
32492;BME280;20605;49.742;18.802;2022-11-20T10:30:03;97249.07;;;3.37;100.00
32492;BME280;20605;49.742;18.802;2022-11-20T10:32:35;97254.45;;;3.53;100.00
32492;BME280;20605;49.742;18.802;2022-11-20T10:35:38;97255.24;;;3.58;100.00
32492;BME280;20605;49.742;18.802;2022-11-20T10:38:16;97261.55;;;3.69;100.00
32492;BME280;20605;49.742;18.802;2022-11-20T10:40:41;97258.78;;;3.82;100.00
32492;BME280;20605;49.742;18.802;2022-11-20T10:43:19;97258.20;;;3.90;100.00
32492;BME280;20605;49.742;18.802;2022-11-20T10:48:33;97258.16;;;3.93;100.00
32492;BME280;20605;49.742;18.802;2022-11-20T10:54:36;97266.26;;;3.69;100.00
32492;BME280;20605;49.742;18.802;2022-11-20T11:00:09;97260.22;;;3.37;100.00
32492;BME280;20605;49.742;18.802;2022-11-20T11:02:48;97249.15;;;3.31;100.00
32492;BME280;20605;49.742;18.802;2022-11-20T11:05:36;97250.03;;;3.28;100.00
32492;BME280;20605;49.742;18.802;2022-11-20T11:08:17;97248.16;;;3.41;100.00
32492;BME280;20605;49.742;18.802;2022-11-20T11:10:54;97242.39;;;3.56;100.00
32492;BME280;20605;49.742;18.802;2022-11-20T11:13:29;97238.33;;;3.72;100.00
32492;BME280;20605;49.742;18.802;2022-11-20T11:15:57;97238.20;;;3.81;100.00
32492;BME280;20605;49.742;18.802;2022-11-20T11:18:31;97240.16;;;3.92;100.00
32492;BME280;20605;49.742;18.802;2022-11-20T11:21:03;97247.31;;;4.02;100.00
32492;BME280;20605;49.742;18.802;2022-11-20T11:23:38;97248.05;;;4.10;100.00
32492;BME280;20605;49.742;18.802;2022-11-20T11:26:19;97248.44;;;4.12;100.00
32492;BME280;20605;49.742;18.802;2022-11-20T11:28:56;97246.73;;;4.11;100.00
32492;BME280;20605;49.742;18.802;2022-11-20T11:31:26;97243.63;;;4.18;100.00
32492;BME280;20605;49.742;18.802;2022-11-20T11:34:14;97233.32;;;4.18;100.00
32492;BME280;20605;49.742;18.802;2022-11-20T11:36:47;97244.59;;;4.11;100.00
32492;BME280;20605;49.742;18.802;2022-11-20T11:39:19;97241.95;;;4.15;100.00
32492;BME280;20605;49.742;18.802;2022-11-20T11:41:48;97241.60;;;3.83;100.00
32492;BME280;20605;49.742;18.802;2022-11-20T11:44:21;97242.60;;;3.73;100.00
32492;BME280;20605;49.742;18.802;2022-11-20T11:47:25;97246.01;;;3.75;100.00
32492;BME280;20605;49.742;18.802;2022-11-20T11:50:13;97236.99;;;3.75;100.00
32492;BME280;20605;49.742;18.802;2022-11-20T11:55:54;97238.59;;;3.83;100.00
32492;BME280;20605;49.742;18.802;2022-11-20T11:58:50;97227.41;;;3.84;100.00
32492;BME280;20605;49.742;18.802;2022-11-20T12:01:30;97220.47;;;3.89;100.00
32492;BME280;20605;49.742;18.802;2022-11-20T12:04:23;97215.31;;;3.89;100.00
32492;BME280;20605;49.742;18.802;2022-11-20T12:07:18;97205.14;;;3.80;100.00
32492;BME280;20605;49.742;18.802;2022-11-20T12:09:52;97202.83;;;3.62;100.00
32492;BME280;20605;49.742;18.802;2022-11-20T12:12:23;97200.73;;;3.58;100.00
32492;BME280;20605;49.742;18.802;2022-11-20T12:14:52;97197.28;;;3.59;100.00
32492;BME280;20605;49.742;18.802;2022-11-20T12:17:21;97181.36;;;3.63;100.00
32492;BME280;20605;49.742;18.802;2022-11-20T12:19:51;97177.89;;;3.66;100.00
32492;BME280;20605;49.742;18.802;2022-11-20T12:25:16;97182.36;;;3.53;100.00
32492;BME280;20605;49.742;18.802;2022-11-20T12:30:55;97168.27;;;3.48;100.00
32492;BME280;20605;49.742;18.802;2022-11-20T12:33:36;97164.25;;;3.59;100.00
32492;BME280;20605;49.742;18.802;2022-11-20T12:36:28;97172.58;;;3.76;100.00
32492;BME280;20605;49.742;18.802;2022-11-20T12:39:30;97170.28;;;3.86;100.00
32492;BME280;20605;49.742;18.802;2022-11-20T12:42:18;97168.53;;;3.88;100.00
32492;BME280;20605;49.742;18.802;2022-11-20T12:45:23;97161.91;;;3.98;100.00
32492;BME280;20605;49.742;18.802;2022-11-20T13:03:06;97153.36;;;4.46;100.00
32492;BME280;20605;49.742;18.802;2022-11-20T13:06:05;97158.05;;;4.48;100.00
32492;BME280;20605;49.742;18.802;2022-11-20T13:08:40;97150.23;;;4.53;100.00
32492;BME280;20605;49.742;18.802;2022-11-20T13:14:19;97144.14;;;4.57;100.00
32492;BME280;20605;49.742;18.802;2022-11-20T13:17:34;97124.00;;;4.76;100.00
32492;BME280;20605;49.742;18.802;2022-11-20T13:19:30;97115.61;;;4.87;100.00
32492;BME280;20605;49.742;18.802;2022-11-20T13:21:58;97117.55;;;4.76;100.00
32492;BME280;20605;49.742;18.802;2022-11-20T13:24:27;97117.30;;;4.67;100.00
32492;BME280;20605;49.742;18.802;2022-11-20T13:27:23;97121.22;;;4.64;100.00
32492;BME280;20605;49.742;18.802;2022-11-20T13:29:36;97124.91;;;4.51;100.00
32492;BME280;20605;49.742;18.802;2022-11-20T13:32:17;97119.89;;;4.43;100.00
32492;BME280;20605;49.742;18.802;2022-11-20T13:34:59;97115.75;;;4.35;100.00
32492;BME280;20605;49.742;18.802;2022-11-20T13:37:36;97115.02;;;4.28;100.00
32492;BME280;20605;49.742;18.802;2022-11-20T13:40:11;97102.20;;;4.23;100.00
32492;BME280;20605;49.742;18.802;2022-11-20T13:43:07;97096.70;;;4.19;100.00
32492;BME280;20605;49.742;18.802;2022-11-20T13:45:35;97088.22;;;4.13;100.00
32492;BME280;20605;49.742;18.802;2022-11-20T13:48:19;97086.60;;;4.07;100.00
32492;BME280;20605;49.742;18.802;2022-11-20T13:51:18;97079.88;;;3.99;100.00
32492;BME280;20605;49.742;18.802;2022-11-20T14:00:16;97086.45;;;3.67;100.00
32492;BME280;20605;49.742;18.802;2022-11-20T14:02:59;97104.98;;;3.62;100.00
32492;BME280;20605;49.742;18.802;2022-11-20T14:05:39;97107.58;;;3.60;100.00
32492;BME280;20605;49.742;18.802;2022-11-20T14:08:14;97110.22;;;3.56;100.00
32492;BME280;20605;49.742;18.802;2022-11-20T14:10:42;97112.08;;;3.46;100.00
32492;BME280;20605;49.742;18.802;2022-11-20T14:13:18;97106.70;;;3.33;100.00
32492;BME280;20605;49.742;18.802;2022-11-20T14:15:45;97108.00;;;3.32;100.00
32492;BME280;20605;49.742;18.802;2022-11-20T14:18:18;97110.99;;;3.33;100.00
32492;BME280;20605;49.742;18.802;2022-11-20T14:20:48;97104.69;;;3.23;100.00
32492;BME280;20605;49.742;18.802;2022-11-20T14:23:23;97106.52;;;3.15;100.00
32492;BME280;20605;49.742;18.802;2022-11-20T14:25:53;97101.09;;;3.04;100.00
32492;BME280;20605;49.742;18.802;2022-11-20T14:28:28;97099.04;;;2.97;100.00
32492;BME280;20605;49.742;18.802;2022-11-20T14:30:56;97104.24;;;2.92;100.00
32492;BME280;20605;49.742;18.802;2022-11-20T14:33:26;97101.65;;;2.94;100.00
32492;BME280;20605;49.742;18.802;2022-11-20T14:35:55;97102.50;;;2.94;100.00
32492;BME280;20605;49.742;18.802;2022-11-20T14:38:27;97086.61;;;2.97;100.00
32492;BME280;20605;49.742;18.802;2022-11-20T14:41:15;97084.81;;;3.03;100.00